Time;durP1;ratioP1;P1;durP2;ratioP2;P2;SDS_P1;SDS_P2;PMS_P1;PMS_P2;Temp;Humidity;BMP_temperature;BMP_pressure;BME280_temperature;BME280_humidity;BME280_pressure;Samples;Min_cycle;Max_cycle;Signal;HPM_P1;HPM_P2
2022/08/24 00:01:52;;;;;;;;;;;;;;;;;;4974613;28;19921;-79
2022/08/24 00:04:17;;;;;;;;;;;;;;;;;;4991368;28;19968;-79
2022/08/24 00:06:42;;;;;;;;;;;;;;;;;;4977162;28;19910;-79
2022/08/24 00:09:08;;;;;;;;;;;;;;;;;;4974838;28;20296;-79
2022/08/24 00:11:33;;;;;;;;;;;;;;;;;;4975753;28;20222;-80
2022/08/24 00:13:58;;;;;;;;;;;;;;;;;;4974382;28;19924;-79
2022/08/24 00:16:23;;;;;;;;;;;;;;;;;;4976601;28;19917;-79
2022/08/24 00:18:48;;;;;;;;;;;;;;;;;;4975969;28;19920;-78
2022/08/24 00:21:14;;;;;;;;;;;;;;;;;;4975351;28;20000;-78
2022/08/24 00:23:39;;;;;;;;;;;;;;;;;;4974717;28;19914;-80
2022/08/24 00:26:04;;;;;;;;;;;;;;;;;;4974833;28;19909;-80
2022/08/24 00:28:29;;;;;;;;;;;;;;;;;;4975344;28;19980;-79
2022/08/24 00:30:54;;;;;;;;;;;;;;;;;;4974624;28;20262;-79
2022/08/24 00:33:20;;;;;;;;;;;;;;;;;;4975252;28;20336;-79
2022/08/24 00:35:45;;;;;;;;;;;;;;;;;;4973595;28;20016;-78
2022/08/24 00:38:10;;;;;;;;;;;;;;;;;;4974507;28;19918;-79
2022/08/24 00:40:35;;;;;;;;;;;;;;;;;;4976321;28;19917;-80
2022/08/24 00:43:03;;;;;;;;;;;;;;;;;;4974157;28;19925;-80
2022/08/24 00:45:28;;;;;;;;;;;;;;;;;;4991764;28;19964;-79
2022/08/24 00:47:53;;;;;;;;;;;;;;;;;;4974714;28;20004;-79
2022/08/24 00:50:19;;;;;;;;;;;;;;;;;;4964645;28;19922;-79
2022/08/24 00:52:45;;;;;;;;;;;;;;;;;;4972213;28;19914;-79
2022/08/24 00:55:10;;;;;;;;;;;;;;;;;;4973681;28;20403;-79
2022/08/24 00:57:35;;;;;;;;;;;;;;;;;;4974448;28;19968;-79
2022/08/24 01:00:00;;;;;;;;;;;;;;;;;;4976934;28;19913;-79
2022/08/24 01:02:26;;;;;;;;;;;;;;;;;;4991652;28;19918;-79
2022/08/24 01:04:51;;;;;;;;;;;;;;;;;;4972508;28;19922;-79
2022/08/24 01:07:16;;;;;;;;;;;;;;;;;;4973834;28;20008;-79
2022/08/24 01:09:41;;;;;;;;;;;;;;;;;;4975962;28;19924;-80
2022/08/24 01:12:08;;;;;;;;;;;;;;;;;;4973810;28;19914;-79
2022/08/24 01:14:33;;;;;;;;;;;;;;;;;;4969470;28;19922;-80
2022/08/24 01:19:43;;;;;;;;;;;;;;;;;;4987026;28;19920;-79
2022/08/24 01:22:08;;;;;;;;;;;;;;;;;;4992322;28;19917;-79
2022/08/24 01:24:33;;;;;;;;;;;;;;;;;;4971276;28;20017;-80
2022/08/24 01:26:58;;;;;;;;;;;;;;;;;;4991285;28;19918;-79
2022/08/24 01:29:23;;;;;;;;;;;;;;;;;;4975813;28;20373;-80
2022/08/24 01:31:48;;;;;;;;;;;;;;;;;;4974830;28;19913;-80
2022/08/24 01:34:13;;;;;;;;;;;;;;;;;;4974447;28;19920;-80
2022/08/24 01:36:39;;;;;;;;;;;;;;;;;;4975094;28;19918;-80
2022/08/24 01:39:04;;;;;;;;;;;;;;;;;;4992124;28;19921;-79
2022/08/24 01:41:29;;;;;;;;;;;;;;;;;;4975323;28;19918;-79
2022/08/24 01:43:54;;;;;;;;;;;;;;;;;;4984874;28;19937;-80
2022/08/24 01:46:19;;;;;;;;;;;;;;;;;;4973832;28;19913;-80
2022/08/24 01:48:44;;;;;;;;;;;;;;;;;;4973813;28;19913;-79
2022/08/24 01:51:10;;;;;;;;;;;;;;;;;;4973673;28;19917;-79
2022/08/24 01:53:35;;;;;;;;;;;;;;;;;;4973211;28;19913;-80
2022/08/24 01:56:00;;;;;;;;;;;;;;;;;;4969785;28;19962;-78
2022/08/24 01:58:25;;;;;;;;;;;;;;;;;;4971846;28;19936;-79
2022/08/24 02:00:51;;;;;;;;;;;;;;;;;;4991976;28;19914;-78
2022/08/24 02:03:16;;;;;;;;;;;;;;;;;;4973637;28;19917;-80
2022/08/24 02:05:41;;;;;;;;;;;;;;;;;;4973965;28;20031;-79
2022/08/24 02:08:06;;;;;;;;;;;;;;;;;;4973353;28;19949;-79
2022/08/24 02:10:31;;;;;;;;;;;;;;;;;;4974067;28;19921;-79
2022/08/24 02:12:56;;;;;;;;;;;;;;;;;;4973814;28;19928;-80
2022/08/24 02:15:23;;;;;;;;;;;;;;;;;;4972325;28;19924;-79
2022/08/24 02:17:48;;;;;;;;;;;;;;;;;;4973112;28;19914;-80
2022/08/24 02:20:13;;;;;;;;;;;;;;;;;;4973993;28;19914;-79
2022/08/24 02:22:38;;;;;;;;;;;;;;;;;;4968630;28;20001;-79
2022/08/24 02:25:03;;;;;;;;;;;;;;;;;;4971893;28;19954;-79
2022/08/24 02:27:28;;;;;;;;;;;;;;;;;;4964751;28;19948;-79
2022/08/24 02:29:54;;;;;;;;;;;;;;;;;;4967002;28;20365;-79
2022/08/24 02:32:19;;;;;;;;;;;;;;;;;;4974756;28;20383;-79
2022/08/24 02:34:44;;;;;;;;;;;;;;;;;;4973940;28;20012;-79
2022/08/24 02:37:09;;;;;;;;;;;;;;;;;;4973270;28;19922;-79
2022/08/24 02:39:35;;;;;;;;;;;;;;;;;;4989258;28;20360;-79
2022/08/24 02:42:00;;;;;;;;;;;;;;;;;;4973773;28;19914;-79
2022/08/24 02:44:25;;;;;;;;;;;;;;;;;;4972606;28;19961;-79
2022/08/24 02:46:51;;;;;;;;;;;;;;;;;;4974629;28;19914;-79
2022/08/24 02:49:17;;;;;;;;;;;;;;;;;;4969356;28;19988;-80
2022/08/24 02:51:43;;;;;;;;;;;;;;;;;;4973222;28;19924;-80
2022/08/24 02:54:08;;;;;;;;;;;;;;;;;;4990861;28;20012;-78
2022/08/24 02:56:33;;;;;;;;;;;;;;;;;;4974515;28;19918;-80
2022/08/24 02:58:59;;;;;;;;;;;;;;;;;;4973120;28;19914;-79
2022/08/24 03:01:24;;;;;;;;;;;;;;;;;;4971650;28;20431;-80
2022/08/24 03:03:49;;;;;;;;;;;;;;;;;;4972194;28;19914;-79
2022/08/24 03:06:14;;;;;;;;;;;;;;;;;;4990376;28;19921;-79
2022/08/24 03:08:40;;;;;;;;;;;;;;;;;;4988376;28;19921;-80
2022/08/24 03:11:06;;;;;;;;;;;;;;;;;;4971279;28;19925;-80
2022/08/24 03:13:31;;;;;;;;;;;;;;;;;;4970760;28;20005;-79
2022/08/24 03:15:57;;;;;;;;;;;;;;;;;;4973076;28;20013;-79
2022/08/24 03:18:22;;;;;;;;;;;;;;;;;;4990131;28;20279;-79
2022/08/24 03:20:48;;;;;;;;;;;;;;;;;;4990178;28;19913;-79
2022/08/24 03:23:13;;;;;;;;;;;;;;;;;;4975444;28;19914;-78
2022/08/24 03:25:38;;;;;;;;;;;;;;;;;;4972434;28;19920;-79
2022/08/24 03:28:03;;;;;;;;;;;;;;;;;;4990394;28;20184;-80
2022/08/24 03:30:29;;;;;;;;;;;;;;;;;;4971461;28;19922;-79
2022/08/24 03:32:54;;;;;;;;;;;;;;;;;;4966110;28;20352;-78
2022/08/24 03:35:20;;;;;;;;;;;;;;;;;;4973388;28;20005;-79
2022/08/24 03:37:46;;;;;;;;;;;;;;;;;;4972621;28;20372;-79
2022/08/24 03:40:11;;;;;;;;;;;;;;;;;;4973147;28;19924;-80
2022/08/24 03:42:36;;;;;;;;;;;;;;;;;;4971836;28;19972;-80
2022/08/24 03:45:02;;;;;;;;;;;;;;;;;;4970485;28;20424;-80
2022/08/24 03:47:27;;;;;;;;;;;;;;;;;;4973614;28;19918;-79
2022/08/24 03:49:52;;;;;;;;;;;;;;;;;;4972027;28;19918;-79
2022/08/24 03:52:17;;;;;;;;;;;;;;;;;;4966195;28;19921;-80
2022/08/24 03:54:42;;;;;;;;;;;;;;;;;;4973054;28;19921;-79
2022/08/24 03:57:07;;;;;;;;;;;;;;;;;;4972357;28;19969;-80
2022/08/24 03:59:33;;;;;;;;;;;;;;;;;;4970636;28;19921;-80
2022/08/24 04:01:58;;;;;;;;;;;;;;;;;;4967999;28;19918;-80
2022/08/24 04:04:23;;;;;;;;;;;;;;;;;;4972624;28;19914;-79
2022/08/24 04:06:48;;;;;;;;;;;;;;;;;;4973563;28;19917;-80
2022/08/24 04:09:13;;;;;;;;;;;;;;;;;;4972977;28;19961;-79
2022/08/24 04:11:39;;;;;;;;;;;;;;;;;;4972979;28;19922;-80
2022/08/24 04:14:04;;;;;;;;;;;;;;;;;;4968200;28;19921;-80
2022/08/24 04:16:29;;;;;;;;;;;;;;;;;;4970338;28;19957;-79
2022/08/24 04:18:55;;;;;;;;;;;;;;;;;;4973066;28;20289;-79
2022/08/24 04:21:20;;;;;;;;;;;;;;;;;;4965536;28;19914;-80
2022/08/24 04:23:45;;;;;;;;;;;;;;;;;;4971488;28;19926;-80
2022/08/24 04:26:10;;;;;;;;;;;;;;;;;;4972295;28;19913;-81
2022/08/24 04:28:35;;;;;;;;;;;;;;;;;;4993295;28;19925;-80
2022/08/24 04:31:00;;;;;;;;;;;;;;;;;;4976846;28;19929;-80
2022/08/24 04:33:26;;;;;;;;;;;;;;;;;;4973454;28;19922;-81
2022/08/24 04:35:51;;;;;;;;;;;;;;;;;;4976772;28;20000;-81
2022/08/24 04:38:16;;;;;;;;;;;;;;;;;;4976027;28;19914;-80
2022/08/24 04:40:41;;;;;;;;;;;;;;;;;;4991970;28;19952;-80
2022/08/24 04:43:07;;;;;;;;;;;;;;;;;;4975837;28;19917;-81
2022/08/24 04:45:33;;;;;;;;;;;;;;;;;;4974641;28;19921;-80
2022/08/24 04:47:58;;;;;;;;;;;;;;;;;;4975621;28;19918;-81
2022/08/24 04:50:23;;;;;;;;;;;;;;;;;;4974925;28;20361;-81
2022/08/24 04:52:48;;;;;;;;;;;;;;;;;;4992484;28;19918;-80
2022/08/24 04:55:14;;;;;;;;;;;;;;;;;;4974188;28;19922;-80
2022/08/24 04:57:39;;;;;;;;;;;;;;;;;;4977070;28;19914;-81
2022/08/24 05:00:04;;;;;;;;;;;;;;;;;;4974914;28;20287;-80
2022/08/24 05:02:30;;;;;;;;;;;;;;;;;;4975525;28;19928;-80
2022/08/24 05:04:55;;;;;;;;;;;;;;;;;;4973912;28;19921;-79
2022/08/24 05:07:20;;;;;;;;;;;;;;;;;;4975900;28;19973;-80
2022/08/24 05:09:46;;;;;;;;;;;;;;;;;;4973915;28;19928;-80
2022/08/24 05:12:11;;;;;;;;;;;;;;;;;;4968749;28;19936;-80
2022/08/24 05:14:36;;;;;;;;;;;;;;;;;;4972310;28;20027;-80
2022/08/24 05:17:01;;;;;;;;;;;;;;;;;;4953352;28;20279;-79
2022/08/24 05:19:27;;;;;;;;;;;;;;;;;;4955141;28;19969;-80
2022/08/24 05:21:52;;;;;;;;;;;;;;;;;;4948971;28;20391;-80
2022/08/24 05:24:18;;;;;;;;;;;;;;;;;;4940996;28;20005;-80
2022/08/24 05:26:44;;;;;;;;;;;;;;;;;;4952056;28;19914;-80
2022/08/24 05:29:09;;;;;;;;;;;;;;;;;;4955400;28;19925;-79
2022/08/24 05:31:34;;;;;;;;;;;;;;;;;;4956110;28;19970;-80
2022/08/24 05:33:59;;;;;;;;;;;;;;;;;;4954051;28;20668;-80
2022/08/24 05:36:25;;;;;;;;;;;;;;;;;;4953334;28;19953;-81
2022/08/24 05:38:50;;;;;;;;;;;;;;;;;;4955874;28;19921;-81
2022/08/24 05:41:15;;;;;;;;;;;;;;;;;;4956681;28;19918;-81
2022/08/24 05:43:40;;;;;;;;;;;;;;;;;;4946762;28;19918;-80
2022/08/24 05:46:05;;;;;;;;;;;;;;;;;;4955560;28;19921;-80
2022/08/24 05:48:31;;;;;;;;;;;;;;;;;;4951685;28;20360;-80
2022/08/24 05:50:57;;;;;;;;;;;;;;;;;;4955776;28;19922;-80
2022/08/24 05:53:22;;;;;;;;;;;;;;;;;;4955143;28;19914;-80
2022/08/24 05:55:47;;;;;;;;;;;;;;;;;;4955760;28;20000;-80
2022/08/24 05:58:12;;;;;;;;;;;;;;;;;;4950855;28;20262;-80
2022/08/24 06:00:37;;;;;;;;;;;;;;;;;;4955258;28;19968;-80
2022/08/24 06:03:02;;;;;;;;;;;;;;;;;;4953535;28;19914;-79
2022/08/24 06:05:28;;;;;;;;;;;;;;;;;;4953425;28;19918;-81
2022/08/24 06:07:53;;;;;;;;;;;;;;;;;;4946183;28;20016;-80
2022/08/24 06:10:18;;;;;;;;;;;;;;;;;;4944315;29;20065;-80
2022/08/24 06:12:44;;;;;;;;;;;;;;;;;;4951009;28;19936;-80
2022/08/24 06:15:10;;;;;;;;;;;;;;;;;;4953909;28;20291;-79
2022/08/24 06:17:35;;;;;;;;;;;;;;;;;;4974161;28;20473;-79
2022/08/24 06:20:00;;;;;;;;;;;;;;;;;;4970220;28;20017;-79
2022/08/24 06:22:25;;;;;;;;;;;;;;;;;;4975163;28;20336;-80
2022/08/24 06:27:34;;;;;;;;;;;;;;;;;;4990564;28;20388;-79
2022/08/24 06:30:00;;;;;;;;;;;;;;;;;;4972107;28;20308;-81
2022/08/24 06:32:25;;;;;;;;;;;;;;;;;;4972310;28;19918;-78
2022/08/24 06:34:50;;;;;;;;;;;;;;;;;;4990246;28;19964;-80
2022/08/24 06:37:15;;;;;;;;;;;;;;;;;;4973032;28;19918;-80
2022/08/24 06:39:40;;;;;;;;;;;;;;;;;;4968948;28;19914;-79
2022/08/24 06:42:05;;;;;;;;;;;;;;;;;;4974172;28;20363;-79
2022/08/24 06:44:30;;;;;;;;;;;;;;;;;;4969925;28;20356;-81
2022/08/24 06:46:56;;;;;;;;;;;;;;;;;;4973401;28;19918;-81
2022/08/24 06:49:21;;;;;;;;;;;;;;;;;;4973028;28;19940;-81
2022/08/24 06:51:46;;;;;;;;;;;;;;;;;;4972093;28;19922;-80
2022/08/24 06:54:11;;;;;;;;;;;;;;;;;;4972675;28;19969;-80
2022/08/24 06:56:36;;;;;;;;;;;;;;;;;;4974258;28;19914;-79
2022/08/24 06:59:02;;;;;;;;;;;;;;;;;;4973479;28;19913;-82
2022/08/24 07:01:28;;;;;;;;;;;;;;;;;;4970802;28;19913;-80
2022/08/24 07:03:53;;;;;;;;;;;;;;;;;;4970461;28;19914;-78
2022/08/24 07:06:18;;;;;;;;;;;;;;;;;;4972305;28;20273;-77
2022/08/24 07:08:43;;;;;;;;;;;;;;;;;;4972627;28;19920;-79
2022/08/24 07:11:08;;;;;;;;;;;;;;;;;;4971172;28;19922;-80
2022/08/24 07:13:33;;;;;;;;;;;;;;;;;;4970543;28;19920;-79
2022/08/24 07:15:59;;;;;;;;;;;;;;;;;;4971808;28;19922;-78
2022/08/24 07:18:24;;;;;;;;;;;;;;;;;;4973991;28;20253;-79
2022/08/24 07:20:50;;;;;;;;;;;;;;;;;;4974058;28;19914;-80
2022/08/24 07:23:15;;;;;;;;;;;;;;;;;;4973731;28;19914;-78
2022/08/24 07:25:41;;;;;;;;;;;;;;;;;;4981256;28;19910;-78
2022/08/24 07:28:06;;;;;;;;;;;;;;;;;;4973806;28;20392;-79
2022/08/24 07:30:31;;;;;;;;;;;;;;;;;;4972895;28;19936;-79
2022/08/24 07:32:56;;;;;;;;;;;;;;;;;;4973258;28;19940;-79
2022/08/24 07:35:21;;;;;;;;;;;;;;;;;;4968197;28;21436;-78
2022/08/24 07:37:46;;;;;;;;;;;;;;;;;;4973423;28;19925;-80
2022/08/24 07:40:12;;;;;;;;;;;;;;;;;;4972871;28;20427;-80
2022/08/24 07:42:38;;;;;;;;;;;;;;;;;;4988170;28;19933;-79
2022/08/24 07:45:04;;;;;;;;;;;;;;;;;;4963698;28;20253;-80
2022/08/24 07:47:29;;;;;;;;;;;;;;;;;;4972566;28;19925;-80
2022/08/24 07:49:54;;;;;;;;;;;;;;;;;;4972526;28;19917;-79
2022/08/24 07:52:19;;;;;;;;;;;;;;;;;;4972625;28;20288;-80
2022/08/24 07:54:44;;;;;;;;;;;;;;;;;;4968717;28;19949;-79
2022/08/24 07:57:09;;;;;;;;;;;;;;;;;;4974951;28;19921;-79
2022/08/24 07:59:34;;;;;;;;;;;;;;;;;;4973745;28;20012;-78
2022/08/24 08:02:00;;;;;;;;;;;;;;;;;;4994195;28;19913;-79
2022/08/24 08:04:26;;;;;;;;;;;;;;;;;;4974306;28;19921;-79
2022/08/24 08:06:51;;;;;;;;;;;;;;;;;;4993065;28;19921;-79
2022/08/24 08:09:17;;;;;;;;;;;;;;;;;;4985896;28;19913;-78
2022/08/24 08:11:42;;;;;;;;;;;;;;;;;;4976105;28;20341;-78
2022/08/24 08:14:07;;;;;;;;;;;;;;;;;;4988230;28;19918;-80
2022/08/24 08:16:32;;;;;;;;;;;;;;;;;;4975297;28;19973;-78
2022/08/24 08:18:57;;;;;;;;;;;;;;;;;;4975213;28;19914;-79
2022/08/24 08:24:17;;;;;;;;;;;;;;;;;;4992553;28;20375;-78
2022/08/24 08:26:42;;;;;;;;;;;;;;;;;;4975377;28;20359;-78
2022/08/24 08:29:09;;;;;;;;;;;;;;;;;;4975756;28;19936;-80
2022/08/24 08:31:34;;;;;;;;;;;;;;;;;;4976780;28;20392;-79
2022/08/24 08:33:59;;;;;;;;;;;;;;;;;;4988902;28;19920;-79
2022/08/24 08:36:25;;;;;;;;;;;;;;;;;;4972198;28;20489;-80
2022/08/24 08:38:50;;;;;;;;;;;;;;;;;;4975108;28;19914;-80
2022/08/24 08:41:20;;;;;;;;;;;;;;;;;;4975724;28;19925;-80
2022/08/24 08:43:47;;;;;;;;;;;;;;;;;;4970645;28;19922;-80
2022/08/24 08:46:12;;;;;;;;;;;;;;;;;;4974593;28;19991;-78
2022/08/24 08:48:37;;;;;;;;;;;;;;;;;;4974857;28;19926;-80
2022/08/24 08:51:02;;;;;;;;;;;;;;;;;;4975784;28;20480;-80
2022/08/24 08:53:28;;;;;;;;;;;;;;;;;;4975987;28;19921;-80
2022/08/24 08:55:54;;;;;;;;;;;;;;;;;;4992750;28;19957;-81
2022/08/24 08:58:19;;;;;;;;;;;;;;;;;;4974670;28;19918;-80
2022/08/24 09:00:44;;;;;;;;;;;;;;;;;;4968397;28;19910;-81
2022/08/24 09:03:10;;;;;;;;;;;;;;;;;;4990596;28;20387;-81
2022/08/24 09:05:35;;;;;;;;;;;;;;;;;;4975020;28;20364;-78
2022/08/24 09:08:00;;;;;;;;;;;;;;;;;;4973337;28;19910;-80
2022/08/24 09:10:25;;;;;;;;;;;;;;;;;;4973707;28;19941;-80
2022/08/24 09:12:51;;;;;;;;;;;;;;;;;;4992096;28;19918;-81
2022/08/24 09:15:16;;;;;;;;;;;;;;;;;;4972953;28;20031;-79
2022/08/24 09:17:41;;;;;;;;;;;;;;;;;;4973772;28;19917;-81
2022/08/24 09:20:07;;;;;;;;;;;;;;;;;;4974847;28;19929;-80
2022/08/24 09:22:32;;;;;;;;;;;;;;;;;;4975048;28;20000;-81
2022/08/24 09:24:57;;;;;;;;;;;;;;;;;;4975345;28;19914;-80
2022/08/24 09:27:23;;;;;;;;;;;;;;;;;;4975464;28;19977;-80
2022/08/24 09:29:48;;;;;;;;;;;;;;;;;;4972749;28;19961;-80
2022/08/24 09:32:13;;;;;;;;;;;;;;;;;;4971359;28;19914;-81
2022/08/24 09:34:38;;;;;;;;;;;;;;;;;;4973487;28;19924;-81
2022/08/24 09:37:03;;;;;;;;;;;;;;;;;;4973344;28;19941;-81
2022/08/24 09:39:28;;;;;;;;;;;;;;;;;;4971550;28;19980;-81
2022/08/24 09:41:54;;;;;;;;;;;;;;;;;;4971421;28;19914;-81
2022/08/24 09:44:19;;;;;;;;;;;;;;;;;;4971719;28;19968;-82
2022/08/24 09:46:44;;;;;;;;;;;;;;;;;;4992174;28;19921;-82
2022/08/24 09:49:09;;;;;;;;;;;;;;;;;;4968198;28;20050;-81
2022/08/24 09:51:35;;;;;;;;;;;;;;;;;;4974556;28;20355;-81
2022/08/24 09:54:01;;;;;;;;;;;;;;;;;;4990907;28;20253;-81
2022/08/24 09:56:26;;;;;;;;;;;;;;;;;;4974222;28;19925;-80
2022/08/24 09:58:56;;;;;;;;;;;;;;;;;;4973732;28;19945;-82
2022/08/24 10:01:21;;;;;;;;;;;;;;;;;;4990561;28;19937;-80
2022/08/24 10:03:46;;;;;;;;;;;;;;;;;;4973466;28;20281;-81
2022/08/24 10:06:11;;;;;;;;;;;;;;;;;;4973997;28;19918;-80
2022/08/24 10:08:36;;;;;;;;;;;;;;;;;;4974469;28;20000;-82
2022/08/24 10:11:02;;;;;;;;;;;;;;;;;;4969862;28;19929;-81
2022/08/24 10:13:28;;;;;;;;;;;;;;;;;;4971573;28;19918;-81
2022/08/24 10:15:53;;;;;;;;;;;;;;;;;;4959830;28;19926;-81
2022/08/24 10:18:19;;;;;;;;;;;;;;;;;;4954407;28;19937;-80
2022/08/24 10:20:44;;;;;;;;;;;;;;;;;;4951002;28;19921;-81
2022/08/24 10:23:09;;;;;;;;;;;;;;;;;;4959976;28;20012;-79
2022/08/24 10:25:35;;;;;;;;;;;;;;;;;;4954442;28;20368;-80
2022/08/24 10:28:00;;;;;;;;;;;;;;;;;;4952976;28;19968;-80
2022/08/24 10:30:25;;;;;;;;;;;;;;;;;;4972415;28;19932;-81
2022/08/24 10:32:50;;;;;;;;;;;;;;;;;;4969919;28;20276;-79
2022/08/24 10:35:15;;;;;;;;;;;;;;;;;;4970373;28;19918;-83
2022/08/24 10:37:40;;;;;;;;;;;;;;;;;;4953380;28;20403;-80
2022/08/24 10:40:07;;;;;;;;;;;;;;;;;;4954157;28;19981;-80
2022/08/24 10:45:16;;;;;;;;;;;;;;;;;;4967675;28;19981;-80
2022/08/24 10:47:41;;;;;;;;;;;;;;;;;;4970663;28;19950;-80
2022/08/24 10:50:06;;;;;;;;;;;;;;;;;;4954169;28;19933;-80
2022/08/24 10:52:31;;;;;;;;;;;;;;;;;;4969680;28;19914;-80
2022/08/24 10:54:57;;;;;;;;;;;;;;;;;;4954314;28;19924;-80
2022/08/24 10:57:22;;;;;;;;;;;;;;;;;;4952525;28;19914;-80
2022/08/24 10:59:47;;;;;;;;;;;;;;;;;;4954894;28;19918;-80
2022/08/24 11:02:12;;;;;;;;;;;;;;;;;;4949195;28;20009;-80
2022/08/24 11:04:38;;;;;;;;;;;;;;;;;;4954265;28;19919;-80
2022/08/24 11:07:03;;;;;;;;;;;;;;;;;;4954025;28;20444;-82
2022/08/24 11:09:28;;;;;;;;;;;;;;;;;;4951349;28;19969;-81
2022/08/24 11:11:53;;;;;;;;;;;;;;;;;;4953783;28;19922;-81
2022/08/24 11:14:18;;;;;;;;;;;;;;;;;;4949844;28;19922;-80
2022/08/24 11:16:44;;;;;;;;;;;;;;;;;;4960175;28;20367;-80
2022/08/24 11:19:09;;;;;;;;;;;;;;;;;;4954758;28;20373;-80
2022/08/24 11:21:35;;;;;;;;;;;;;;;;;;4976571;28;19913;-81
2022/08/24 11:24:00;;;;;;;;;;;;;;;;;;4963840;28;20027;-81
2022/08/24 11:26:25;;;;;;;;;;;;;;;;;;4965451;28;19915;-80
2022/08/24 11:28:50;;;;;;;;;;;;;;;;;;4972386;28;20272;-81
2022/08/24 11:31:16;;;;;;;;;;;;;;;;;;4955812;28;20067;-80
2022/08/24 11:33:41;;;;;;;;;;;;;;;;;;4966313;28;19918;-80
2022/08/24 11:36:06;;;;;;;;;;;;;;;;;;4964441;28;19922;-80
2022/08/24 11:38:33;;;;;;;;;;;;;;;;;;4966575;28;20045;-81
2022/08/24 11:40:58;;;;;;;;;;;;;;;;;;4956759;28;19989;-83
2022/08/24 11:43:25;;;;;;;;;;;;;;;;;;4967601;28;19922;-81
2022/08/24 11:45:50;;;;;;;;;;;;;;;;;;4962818;28;19973;-81
2022/08/24 11:48:15;;;;;;;;;;;;;;;;;;4973162;28;19957;-80
2022/08/24 11:50:40;;;;;;;;;;;;;;;;;;4963901;28;19926;-80
2022/08/24 11:53:05;;;;;;;;;;;;;;;;;;4960562;28;19919;-82
2022/08/24 11:55:31;;;;;;;;;;;;;;;;;;4958219;28;19950;-82
2022/08/24 11:57:56;;;;;;;;;;;;;;;;;;4967308;28;19918;-81
2022/08/24 12:00:21;;;;;;;;;;;;;;;;;;4960435;28;19922;-81
2022/08/24 12:02:46;;;;;;;;;;;;;;;;;;4959074;28;20369;-81
2022/08/24 12:05:12;;;;;;;;;;;;;;;;;;4959079;28;20639;-81
2022/08/24 12:07:37;;;;;;;;;;;;;;;;;;4983922;28;20284;-81
2022/08/24 12:10:02;;;;;;;;;;;;;;;;;;4964726;28;19926;-81
2022/08/24 12:12:27;;;;;;;;;;;;;;;;;;4962810;28;20357;-82
2022/08/24 12:14:54;;;;;;;;;;;;;;;;;;4960440;28;20017;-82
2022/08/24 12:17:19;;;;;;;;;;;;;;;;;;4960345;28;19949;-80
2022/08/24 12:19:44;;;;;;;;;;;;;;;;;;4958734;28;20348;-81
2022/08/24 12:22:09;;;;;;;;;;;;;;;;;;4952788;28;19918;-80
2022/08/24 12:24:34;;;;;;;;;;;;;;;;;;4952589;28;19937;-81
2022/08/24 12:27:01;;;;;;;;;;;;;;;;;;4955920;28;19924;-80
2022/08/24 12:29:27;;;;;;;;;;;;;;;;;;4957429;28;19918;-79
2022/08/24 12:31:52;;;;;;;;;;;;;;;;;;4950440;28;20384;-79
2022/08/24 12:34:17;;;;;;;;;;;;;;;;;;4955990;28;19914;-80
2022/08/24 12:36:43;;;;;;;;;;;;;;;;;;4957283;28;19958;-80
2022/08/24 12:39:08;;;;;;;;;;;;;;;;;;4961309;28;20375;-79
2022/08/24 12:41:34;;;;;;;;;;;;;;;;;;4952874;28;19970;-79
2022/08/24 12:43:59;;;;;;;;;;;;;;;;;;4946982;28;19925;-79
2022/08/24 12:46:24;;;;;;;;;;;;;;;;;;4956592;28;19937;-80
2022/08/24 12:48:49;;;;;;;;;;;;;;;;;;4958208;28;19918;-80
2022/08/24 12:51:14;;;;;;;;;;;;;;;;;;4955234;28;19969;-80
2022/08/24 12:53:39;;;;;;;;;;;;;;;;;;4958488;28;20361;-81
2022/08/24 12:56:05;;;;;;;;;;;;;;;;;;4954998;28;19910;-81
2022/08/24 12:58:30;;;;;;;;;;;;;;;;;;4950983;29;19950;-80
2022/08/24 13:00:55;;;;;;;;;;;;;;;;;;4943325;28;20288;-80
2022/08/24 13:03:20;;;;;;;;;;;;;;;;;;4940129;29;19921;-81
2022/08/24 13:05:47;;;;;;;;;;;;;;;;;;4957618;28;20368;-83
2022/08/24 13:08:12;;;;;;;;;;;;;;;;;;4953764;28;20381;-80
2022/08/24 13:10:37;;;;;;;;;;;;;;;;;;4957343;28;19965;-81
2022/08/24 13:13:02;;;;;;;;;;;;;;;;;;4975481;28;19910;-79
2022/08/24 13:15:28;;;;;;;;;;;;;;;;;;4957232;28;19922;-79
2022/08/24 13:17:53;;;;;;;;;;;;;;;;;;4972912;28;20360;-79
2022/08/24 13:20:18;;;;;;;;;;;;;;;;;;4972558;28;19914;-80
2022/08/24 13:22:45;;;;;;;;;;;;;;;;;;4972334;28;20004;-79
2022/08/24 13:25:11;;;;;;;;;;;;;;;;;;4971686;28;20466;-80
2022/08/24 13:27:36;;;;;;;;;;;;;;;;;;4976083;28;19914;-80
2022/08/24 13:30:01;;;;;;;;;;;;;;;;;;4988199;28;19925;-79
2022/08/24 13:32:26;;;;;;;;;;;;;;;;;;4971133;28;19976;-78
2022/08/24 13:34:51;;;;;;;;;;;;;;;;;;4975718;28;20173;-79
2022/08/24 13:37:16;;;;;;;;;;;;;;;;;;4972482;28;19920;-80
2022/08/24 13:39:42;;;;;;;;;;;;;;;;;;4968844;28;19917;-80
2022/08/24 13:42:09;;;;;;;;;;;;;;;;;;4973659;28;19972;-79
2022/08/24 13:44:34;;;;;;;;;;;;;;;;;;4969280;28;19920;-79
2022/08/24 13:46:59;;;;;;;;;;;;;;;;;;4976086;28;19961;-79
2022/08/24 13:49:24;;;;;;;;;;;;;;;;;;4971271;28;19914;-80
2022/08/24 13:51:50;;;;;;;;;;;;;;;;;;4975104;28;20364;-80
2022/08/24 13:54:15;;;;;;;;;;;;;;;;;;4976467;28;19918;-80
2022/08/24 13:56:40;;;;;;;;;;;;;;;;;;4992886;28;20009;-80
2022/08/24 13:59:05;;;;;;;;;;;;;;;;;;4975770;28;20356;-78
2022/08/24 14:01:30;;;;;;;;;;;;;;;;;;4975954;28;19917;-79
2022/08/24 14:03:55;;;;;;;;;;;;;;;;;;4974773;28;19913;-79
2022/08/24 14:06:21;;;;;;;;;;;;;;;;;;4992865;28;19967;-82
2022/08/24 14:08:46;;;;;;;;;;;;;;;;;;4969787;28;20260;-81
2022/08/24 14:11:12;;;;;;;;;;;;;;;;;;4972714;28;19917;-80
2022/08/24 14:13:37;;;;;;;;;;;;;;;;;;4971800;28;20451;-80
2022/08/24 14:18:46;;;;;;;;;;;;;;;;;;4972379;28;19973;-79
2022/08/24 14:21:18;;;;;;;;;;;;;;;;;;4953539;28;19955;-80
2022/08/24 14:23:45;;;;;;;;;;;;;;;;;;4947542;28;19914;-81
2022/08/24 14:26:10;;;;;;;;;;;;;;;;;;4969613;28;20288;-80
2022/08/24 14:28:39;;;;;;;;;;;;;;;;;;4947408;28;19921;-80
2022/08/24 14:31:07;;;;;;;;;;;;;;;;;;4944451;28;19941;-79
2022/08/24 14:33:32;;;;;;;;;;;;;;;;;;4947171;28;20070;-79
2022/08/24 14:35:57;;;;;;;;;;;;;;;;;;4947029;28;20455;-80
2022/08/24 14:38:22;;;;;;;;;;;;;;;;;;4949448;28;20512;-80
2022/08/24 14:40:48;;;;;;;;;;;;;;;;;;4958197;28;19925;-81
2022/08/24 14:43:13;;;;;;;;;;;;;;;;;;4939984;28;19994;-80
2022/08/24 14:45:38;;;;;;;;;;;;;;;;;;4947623;28;20317;-81
2022/08/24 14:48:07;;;;;;;;;;;;;;;;;;4949526;28;19921;-80
2022/08/24 14:50:32;;;;;;;;;;;;;;;;;;4951704;28;19934;-81
2022/08/24 14:52:59;;;;;;;;;;;;;;;;;;4962897;28;19925;-81
2022/08/24 14:55:25;;;;;;;;;;;;;;;;;;4961800;28;19921;-80
2022/08/24 14:57:50;;;;;;;;;;;;;;;;;;4954938;28;19914;-80
2022/08/24 15:00:15;;;;;;;;;;;;;;;;;;4949398;28;20258;-83
2022/08/24 15:02:43;;;;;;;;;;;;;;;;;;4969379;28;20392;-80
2022/08/24 15:05:08;;;;;;;;;;;;;;;;;;4951131;28;19941;-79
2022/08/24 15:07:33;;;;;;;;;;;;;;;;;;4972855;28;20360;-80
2022/08/24 15:09:59;;;;;;;;;;;;;;;;;;4956458;28;20008;-81
2022/08/24 15:12:24;;;;;;;;;;;;;;;;;;4953982;28;19922;-81
2022/08/24 15:14:49;;;;;;;;;;;;;;;;;;4953661;28;20004;-80
2022/08/24 15:17:14;;;;;;;;;;;;;;;;;;4951866;28;20000;-81
2022/08/24 15:19:39;;;;;;;;;;;;;;;;;;4945455;28;19922;-80
2022/08/24 15:22:04;;;;;;;;;;;;;;;;;;4953628;28;20276;-80
2022/08/24 15:24:29;;;;;;;;;;;;;;;;;;4949641;28;20377;-79
2022/08/24 15:26:55;;;;;;;;;;;;;;;;;;4951026;28;19961;-79
2022/08/24 15:29:20;;;;;;;;;;;;;;;;;;4937578;29;19914;-81
2022/08/24 15:37:23;;;;;;;;;;;;;;;;;;4913549;29;20409;-80
2022/08/24 15:39:48;;;;;;;;;;;;;;;;;;4910363;29;20022;-80
2022/08/24 15:42:14;;;;;;;;;;;;;;;;;;4912200;29;20362;-80
2022/08/24 15:44:39;;;;;;;;;;;;;;;;;;4909072;29;19919;-81
2022/08/24 15:47:05;;;;;;;;;;;;;;;;;;4893373;29;20027;-79
2022/08/24 15:49:30;;;;;;;;;;;;;;;;;;4911751;29;19919;-80
2022/08/24 15:51:56;;;;;;;;;;;;;;;;;;4898654;29;19923;-79
2022/08/24 15:54:22;;;;;;;;;;;;;;;;;;4903925;29;20383;-78
2022/08/24 15:56:59;;;;;;;;;;;;;;;;;;4909391;29;19916;-81
2022/08/24 15:59:24;;;;;;;;;;;;;;;;;;4908338;29;19926;-80
2022/08/24 16:04:36;;;;;;;;;;;;;;;;;;4911531;29;20045;-81
2022/08/24 16:07:11;;;;;;;;;;;;;;;;;;4913408;29;19911;-82
2022/08/24 16:09:37;;;;;;;;;;;;;;;;;;4908870;29;19931;-82
2022/08/24 16:12:03;;;;;;;;;;;;;;;;;;4939255;28;19922;-81
2022/08/24 16:14:28;;;;;;;;;;;;;;;;;;4953504;28;19922;-82
2022/08/24 16:16:53;;;;;;;;;;;;;;;;;;4972320;28;20376;-81
2022/08/24 16:19:19;;;;;;;;;;;;;;;;;;4976076;28;19965;-79
2022/08/24 16:21:48;;;;;;;;;;;;;;;;;;4974323;28;19913;-79
2022/08/24 16:24:16;;;;;;;;;;;;;;;;;;4977649;28;19981;-79
2022/08/24 16:26:50;;;;;;;;;;;;;;;;;;4977845;28;20287;-82
2022/08/24 16:29:16;;;;;;;;;;;;;;;;;;4977064;28;19949;-81
2022/08/24 16:31:41;;;;;;;;;;;;;;;;;;4977756;28;19968;-81
2022/08/24 16:34:06;;;;;;;;;;;;;;;;;;4965360;28;19957;-83
2022/08/24 16:36:32;;;;;;;;;;;;;;;;;;4988858;28;19925;-81
2022/08/24 16:38:57;;;;;;;;;;;;;;;;;;4975824;28;19915;-81
2022/08/24 16:41:22;;;;;;;;;;;;;;;;;;4990200;28;20387;-81
2022/08/24 16:43:47;;;;;;;;;;;;;;;;;;4993479;28;19918;-82
2022/08/24 16:46:12;;;;;;;;;;;;;;;;;;4993586;28;19914;-83
2022/08/24 16:48:38;;;;;;;;;;;;;;;;;;4976972;28;19922;-82
2022/08/24 16:51:03;;;;;;;;;;;;;;;;;;4976613;28;19925;-82
2022/08/24 16:53:28;;;;;;;;;;;;;;;;;;4976086;28;19918;-82
2022/08/24 16:55:53;;;;;;;;;;;;;;;;;;4993075;28;20001;-81